createdAt,value
2017-10-03T00:03:14.457Z,20.00
2017-10-03T00:06:40.998Z,20.00
2017-10-03T00:10:05.862Z,20.00
2017-10-03T00:13:31.644Z,20.00
2017-10-03T00:16:57.260Z,20.00
2017-10-03T00:20:22.340Z,20.00
2017-10-03T00:23:47.925Z,19.90
2017-10-03T00:27:14.098Z,19.90
2017-10-03T00:30:39.903Z,19.90
2017-10-03T00:34:05.034Z,19.90
2017-10-03T00:37:40.066Z,19.90
2017-10-03T00:41:05.165Z,19.90
2017-10-03T00:44:30.749Z,19.90
2017-10-03T00:47:57.128Z,19.90
2017-10-03T00:51:23.128Z,19.90
2017-10-03T00:54:48.641Z,19.80
2017-10-03T00:58:15.705Z,19.80
2017-10-03T01:01:41.496Z,19.80
2017-10-03T01:05:06.748Z,19.80
2017-10-03T01:08:32.517Z,19.80
2017-10-03T01:11:57.973Z,19.80
2017-10-03T01:15:23.817Z,19.80
2017-10-03T01:18:50.478Z,19.80
2017-10-03T01:22:15.801Z,19.70
2017-10-03T01:25:40.972Z,19.70
2017-10-03T01:29:07.116Z,19.70
2017-10-03T01:32:32.960Z,19.70
2017-10-03T01:35:58.405Z,19.70
2017-10-03T01:39:24.318Z,19.70
2017-10-03T01:42:49.656Z,19.70
2017-10-03T01:46:15.345Z,19.70
2017-10-03T01:49:40.673Z,19.70
2017-10-03T01:53:06.494Z,19.70
2017-10-03T01:56:32.337Z,19.70
2017-10-03T01:59:58.117Z,19.70
2017-10-03T02:03:23.545Z,19.70
2017-10-03T02:06:49.127Z,19.70
2017-10-03T02:10:15.361Z,19.70
2017-10-03T02:13:40.749Z,19.70
2017-10-03T02:17:06.304Z,19.60
2017-10-03T02:20:32.723Z,19.60
2017-10-03T02:23:59.196Z,19.60
2017-10-03T02:27:24.760Z,19.60
2017-10-03T02:30:50.555Z,19.60
2017-10-03T02:34:16.204Z,19.60
2017-10-03T02:37:41.707Z,19.60
2017-10-03T02:41:07.718Z,19.60
2017-10-03T02:44:33.036Z,19.60
2017-10-03T02:47:58.847Z,19.60
2017-10-03T02:51:24.593Z,19.60
2017-10-03T02:54:50.380Z,19.60
2017-10-03T02:58:15.748Z,19.60
2017-10-03T03:01:42.049Z,19.60
2017-10-03T03:05:07.543Z,19.50
2017-10-03T03:08:32.934Z,19.50
2017-10-03T03:11:58.968Z,19.50
2017-10-03T03:15:24.882Z,19.50
2017-10-03T03:18:50.307Z,19.50
2017-10-03T03:22:15.804Z,19.50
2017-10-03T03:25:41.126Z,19.50
2017-10-03T03:29:06.460Z,19.50
2017-10-03T03:32:32.253Z,19.50
2017-10-03T03:35:57.733Z,19.50
2017-10-03T03:39:22.960Z,19.50
2017-10-03T03:42:48.790Z,19.50
2017-10-03T03:46:14.130Z,19.50
2017-10-03T03:49:39.657Z,19.50
2017-10-03T03:53:06.712Z,19.50
2017-10-03T03:56:32.501Z,19.40
2017-10-03T03:59:57.916Z,19.40
2017-10-03T04:03:23.546Z,19.70
2017-10-03T04:06:48.741Z,19.70
2017-10-03T04:10:14.182Z,19.80
2017-10-03T04:13:40.729Z,19.90
2017-10-03T04:17:06.872Z,20.10
2017-10-03T04:20:32.500Z,20.10
2017-10-03T04:23:58.678Z,20.30
2017-10-03T04:27:24.093Z,20.30
2017-10-03T04:30:49.661Z,20.50
2017-10-03T04:34:15.765Z,20.70
2017-10-03T04:37:41.120Z,20.70
2017-10-03T04:41:06.621Z,20.80
2017-10-03T04:44:32.778Z,21.00
2017-10-03T04:47:58.164Z,20.90
2017-10-03T04:51:24.569Z,21.20
2017-10-03T04:54:49.882Z,21.10
2017-10-03T04:58:15.320Z,21.20
2017-10-03T05:01:40.721Z,21.30
2017-10-03T05:05:06.153Z,21.30
2017-10-03T05:08:31.547Z,21.40
2017-10-03T05:11:56.910Z,21.50
2017-10-03T05:15:23.392Z,21.50
2017-10-03T05:18:48.745Z,21.50
2017-10-03T05:22:15.185Z,21.60
2017-10-03T05:25:42.389Z,21.60
2017-10-03T05:29:07.766Z,21.60
2017-10-03T05:32:34.149Z,21.70
2017-10-03T05:35:59.737Z,21.70
2017-10-03T05:39:27.935Z,21.80
2017-10-03T05:42:53.421Z,21.80
2017-10-03T05:46:19.069Z,21.90
2017-10-03T05:49:44.906Z,21.90
2017-10-03T05:53:14.164Z,21.90
2017-10-03T05:56:39.646Z,21.90
2017-10-03T06:00:05.411Z,21.90
2017-10-03T06:03:31.042Z,21.90
2017-10-03T06:06:56.477Z,21.80
2017-10-03T06:10:22.093Z,21.80
2017-10-03T06:13:47.588Z,21.90
2017-10-03T06:17:14.367Z,21.80
2017-10-03T06:20:39.826Z,21.80
2017-10-03T06:24:05.194Z,21.80
2017-10-03T06:27:30.753Z,21.80
2017-10-03T06:30:56.070Z,21.70
2017-10-03T06:34:21.510Z,21.70
2017-10-03T06:37:46.962Z,21.70
2017-10-03T06:41:12.365Z,21.60
2017-10-03T06:44:38.825Z,21.60
2017-10-03T06:48:04.587Z,21.60
2017-10-03T06:51:30.009Z,21.50
2017-10-03T06:54:55.483Z,21.50
2017-10-03T06:58:21.374Z,21.50
2017-10-03T07:01:46.925Z,21.50
2017-10-03T07:05:12.516Z,21.50
2017-10-03T07:08:38.900Z,21.60
2017-10-03T07:12:04.119Z,21.60
2017-10-03T07:15:29.845Z,21.60
2017-10-03T07:18:55.325Z,21.70
2017-10-03T07:22:20.921Z,21.80
2017-10-03T07:25:46.294Z,21.80
2017-10-03T07:29:11.405Z,21.90
2017-10-03T07:32:36.742Z,22.00
2017-10-03T07:36:02.198Z,22.00
2017-10-03T07:39:27.795Z,22.00
2017-10-03T07:42:53.453Z,22.10
2017-10-03T07:46:18.708Z,22.20
2017-10-03T07:49:44.153Z,22.20
2017-10-03T07:53:10.748Z,22.30
2017-10-03T07:56:36.321Z,22.30
2017-10-03T08:00:01.794Z,22.30
2017-10-03T08:03:27.475Z,22.30
2017-10-03T08:06:52.731Z,22.40
2017-10-03T08:10:19.606Z,22.40
2017-10-03T08:13:45.037Z,22.40
2017-10-03T08:17:10.461Z,22.30
2017-10-03T08:20:35.935Z,22.40
2017-10-03T08:24:01.609Z,22.40
2017-10-03T08:27:26.965Z,22.40
2017-10-03T08:30:52.543Z,22.50
2017-10-03T08:34:17.794Z,22.50
2017-10-03T08:37:43.170Z,22.70
2017-10-03T08:41:08.408Z,22.70
2017-10-03T08:44:33.826Z,22.80
2017-10-03T08:47:59.318Z,22.70
2017-10-03T08:51:30.344Z,22.60
2017-10-03T08:54:56.386Z,22.60
2017-10-03T08:58:21.965Z,22.60
2017-10-03T09:01:47.403Z,22.60
2017-10-03T09:05:13.067Z,22.50
2017-10-03T09:08:38.409Z,22.50
2017-10-03T09:30:20.655Z,22.50
2017-10-03T09:33:46.459Z,22.50
2017-10-03T09:37:11.818Z,22.70
2017-10-03T09:40:41.938Z,22.70
2017-10-03T09:44:07.462Z,22.70
2017-10-03T09:47:33.609Z,22.60
2017-10-03T09:51:00.044Z,22.60
2017-10-03T09:54:26.289Z,22.60
2017-10-03T09:57:51.752Z,22.60
2017-10-03T10:01:17.098Z,22.60
2017-10-03T10:04:43.380Z,22.40
2017-10-03T10:08:08.761Z,22.40
2017-10-03T10:11:34.994Z,22.40
2017-10-03T10:15:01.264Z,22.30
2017-10-03T10:18:27.094Z,22.30
2017-10-03T10:21:52.874Z,22.20
2017-10-03T10:25:18.925Z,22.10
2017-10-03T10:28:49.860Z,22.00
2017-10-03T10:32:16.288Z,22.00
2017-10-03T10:35:41.719Z,22.00
2017-10-03T10:39:07.951Z,21.80
2017-10-03T10:42:34.300Z,21.70
2017-10-03T10:46:00.416Z,21.60
2017-10-03T10:49:26.821Z,21.70
2017-10-03T10:52:52.221Z,21.70
2017-10-03T10:56:18.147Z,21.70
2017-10-03T10:59:45.014Z,21.70
2017-10-03T11:03:17.558Z,21.80
2017-10-03T11:06:43.188Z,21.80
2017-10-03T11:10:08.653Z,21.70
2017-10-03T11:13:35.779Z,21.60
2017-10-03T11:17:01.276Z,21.60
2017-10-03T11:20:28.448Z,21.70
2017-10-03T11:25:02.260Z,21.70
2017-10-03T11:28:27.785Z,21.70
2017-10-03T11:31:53.498Z,21.70
2017-10-03T11:35:18.998Z,21.60
2017-10-03T11:38:44.368Z,21.60
2017-10-03T11:42:09.968Z,21.60
2017-10-03T11:45:35.574Z,21.70
2017-10-03T11:49:03.143Z,21.80
2017-10-03T11:53:00.420Z,21.80
2017-10-03T11:56:26.616Z,21.90
2017-10-03T11:59:52.111Z,21.80
2017-10-03T12:03:17.500Z,21.90
2017-10-03T12:06:47.379Z,21.90
2017-10-03T12:10:12.954Z,21.90
2017-10-03T12:13:56.567Z,21.90
2017-10-03T12:17:24.711Z,21.90
2017-10-03T12:21:07.036Z,22.00
2017-10-03T12:24:41.514Z,22.00
2017-10-03T12:28:07.195Z,22.00
2017-10-03T12:31:34.906Z,22.00
2017-10-03T12:35:00.698Z,21.90
2017-10-03T12:38:26.361Z,21.90
2017-10-03T12:41:54.574Z,21.90
2017-10-03T12:45:20.020Z,21.80
2017-10-03T12:48:45.509Z,21.70
2017-10-03T12:52:11.151Z,21.60
2017-10-03T12:55:36.976Z,21.60
2017-10-03T12:59:02.490Z,21.60
2017-10-03T13:02:32.118Z,21.60
2017-10-03T13:05:57.661Z,21.60
2017-10-03T13:09:23.075Z,21.60
2017-10-03T13:12:48.787Z,21.60
2017-10-03T13:16:15.116Z,21.60
2017-10-03T13:19:40.566Z,21.60
2017-10-03T13:23:05.996Z,21.70
2017-10-03T13:26:32.689Z,21.80
2017-10-03T13:29:58.085Z,21.70
2017-10-03T13:33:27.612Z,21.80
2017-10-03T13:36:53.126Z,21.70
2017-10-03T13:40:23.188Z,21.60
2017-10-03T13:43:48.646Z,21.50
2017-10-03T13:47:18.631Z,21.50
2017-10-03T13:50:44.393Z,21.40
2017-10-03T13:54:14.615Z,21.40
2017-10-03T13:57:40.761Z,21.40
2017-10-03T14:01:06.100Z,21.40
2017-10-03T14:04:31.670Z,21.50
2017-10-03T14:07:57.339Z,21.40
2017-10-03T14:11:22.961Z,21.60
2017-10-03T14:14:48.240Z,21.70
2017-10-03T14:18:13.641Z,21.80
2017-10-03T14:21:39.210Z,21.80
2017-10-03T14:25:04.586Z,22.00
2017-10-03T14:28:30.836Z,22.10
2017-10-03T14:31:56.968Z,22.10
2017-10-03T14:35:22.476Z,22.10
2017-10-03T14:38:48.848Z,21.90
2017-10-03T14:42:19.131Z,21.90
2017-10-03T14:45:44.789Z,21.90
2017-10-03T14:49:15.655Z,21.80
2017-10-03T14:52:42.134Z,22.00
2017-10-03T14:56:08.128Z,22.20
2017-10-03T14:59:33.418Z,22.30
2017-10-03T15:02:59.302Z,22.40
2017-10-03T15:06:25.206Z,22.50
2017-10-03T15:09:53.012Z,22.60
2017-10-03T15:13:18.702Z,22.70
2017-10-03T15:16:44.055Z,22.70
2017-10-03T15:20:10.288Z,22.70
2017-10-03T15:23:36.743Z,22.60
2017-10-03T15:27:02.145Z,22.60
2017-10-03T15:30:28.276Z,22.40
2017-10-03T15:33:53.833Z,22.40
2017-10-03T15:37:19.277Z,22.20
2017-10-03T15:44:15.310Z,22.00
2017-10-03T15:51:11.609Z,21.80
2017-10-03T15:54:37.481Z,21.80
2017-10-03T15:58:06.994Z,21.70
2017-10-03T16:01:33.923Z,21.70
2017-10-03T16:04:59.795Z,21.60
2017-10-03T16:08:25.607Z,21.60
2017-10-03T16:11:51.224Z,21.50
2017-10-03T16:15:16.845Z,21.50
2017-10-03T16:18:42.711Z,21.40
2017-10-03T16:22:14.685Z,21.30
2017-10-03T16:25:41.668Z,21.30
2017-10-03T16:29:08.191Z,21.20
2017-10-03T16:32:36.121Z,21.20
2017-10-03T16:36:01.509Z,21.20
2017-10-03T16:39:27.133Z,21.20
2017-10-03T16:42:52.704Z,21.10
2017-10-03T16:46:19.875Z,21.00
2017-10-03T16:49:52.523Z,21.10
2017-10-03T16:53:17.957Z,21.00
2017-10-03T16:56:44.074Z,21.00
2017-10-03T17:00:09.839Z,20.90
2017-10-03T17:03:35.621Z,20.90
2017-10-03T17:07:01.017Z,20.90
2017-10-03T17:10:27.322Z,20.80
2017-10-03T17:13:53.033Z,20.80
2017-10-03T17:17:18.494Z,20.80
2017-10-03T17:20:44.124Z,20.80
2017-10-03T17:24:10.081Z,20.80
2017-10-03T17:27:36.951Z,20.80
2017-10-03T17:31:05.760Z,20.90
2017-10-03T17:34:31.278Z,20.90
2017-10-03T17:37:57.578Z,20.90
2017-10-03T17:41:23.278Z,20.80
2017-10-03T17:44:57.395Z,20.80
2017-10-03T17:48:25.495Z,20.80
2017-10-03T17:51:52.147Z,20.80
2017-10-03T17:55:21.287Z,20.80
2017-10-03T17:58:48.021Z,20.70
2017-10-03T18:02:13.794Z,20.70
2017-10-03T18:05:48.509Z,20.80
2017-10-03T18:09:17.443Z,20.80
2017-10-03T18:12:42.901Z,20.70
2017-10-03T18:16:08.444Z,20.70
2017-10-03T18:19:33.824Z,20.70
2017-10-03T18:23:00.351Z,20.80
2017-10-03T18:26:26.129Z,20.70
2017-10-03T18:29:51.558Z,20.80
2017-10-03T18:33:17.059Z,20.90
2017-10-03T18:36:42.869Z,20.90
2017-10-03T18:40:08.264Z,20.90
2017-10-03T18:43:33.926Z,20.80
2017-10-03T18:46:59.959Z,20.90
2017-10-03T18:50:25.726Z,20.90
2017-10-03T18:53:51.901Z,20.90
2017-10-03T18:57:17.776Z,20.90
2017-10-03T19:00:43.387Z,20.90
2017-10-03T19:04:08.757Z,20.80
2017-10-03T19:07:34.409Z,20.90
2017-10-03T19:11:00.015Z,20.90
2017-10-03T19:14:25.376Z,20.90
2017-10-03T19:17:51.258Z,20.80
2017-10-03T19:21:17.596Z,20.70
2017-10-03T19:24:44.453Z,20.80
2017-10-03T19:28:11.780Z,20.80
2017-10-03T19:31:39.245Z,20.90
2017-10-03T19:35:06.201Z,20.80
2017-10-03T19:38:33.424Z,20.80
2017-10-03T19:42:00.989Z,20.80
2017-10-03T19:45:28.762Z,20.80
2017-10-03T19:48:55.513Z,20.80
2017-10-03T19:52:22.673Z,20.80
2017-10-03T19:55:50.409Z,20.90
2017-10-03T19:59:18.552Z,20.80
2017-10-03T20:02:45.355Z,20.80
2017-10-03T20:09:44.339Z,20.50
2017-10-03T20:13:10.616Z,20.50
2017-10-03T20:16:37.210Z,20.50
2017-10-03T20:20:03.526Z,20.50
2017-10-03T20:23:30.106Z,20.40
2017-10-03T20:26:56.823Z,20.40
2017-10-03T20:30:23.461Z,20.40
2017-10-03T20:33:50.288Z,20.30
2017-10-03T20:37:16.009Z,20.30
2017-10-03T20:40:42.828Z,20.30
2017-10-03T20:44:09.901Z,20.20
2017-10-03T20:47:36.680Z,20.20
2017-10-03T20:51:03.703Z,20.10
2017-10-03T20:54:30.503Z,20.00
2017-10-03T20:57:56.549Z,20.00
2017-10-03T21:01:22.556Z,19.90
2017-10-03T21:04:49.364Z,19.90
2017-10-03T21:08:15.546Z,19.90
2017-10-03T21:11:41.772Z,19.80
2017-10-03T21:15:08.576Z,19.80
2017-10-03T21:18:35.311Z,19.80
2017-10-03T21:22:01.640Z,19.80
2017-10-03T21:25:27.667Z,19.70
2017-10-03T21:28:54.095Z,19.70
2017-10-03T21:32:20.065Z,19.70
2017-10-03T21:35:46.344Z,19.60
2017-10-03T21:39:13.852Z,19.60
2017-10-03T21:43:14.172Z,19.60
2017-10-03T21:46:40.121Z,19.60
2017-10-03T21:50:06.210Z,19.50
2017-10-03T21:53:32.113Z,19.50
2017-10-03T21:56:58.349Z,19.50
2017-10-03T22:00:24.281Z,19.50
2017-10-03T22:03:50.004Z,19.40
2017-10-03T22:07:17.609Z,19.40
2017-10-03T22:10:44.506Z,19.40
2017-10-03T22:14:11.391Z,19.40
2017-10-03T22:17:38.176Z,19.30
2017-10-03T22:21:04.963Z,19.30
2017-10-03T22:24:31.889Z,19.30
2017-10-03T22:27:57.667Z,19.30
2017-10-03T22:31:24.335Z,19.30
2017-10-03T22:34:51.077Z,19.30
2017-10-03T22:38:17.254Z,19.30
2017-10-03T22:41:44.059Z,19.20
2017-10-03T22:45:10.620Z,19.20
2017-10-03T22:48:38.247Z,19.20
2017-10-03T22:52:09.849Z,19.20
2017-10-03T22:55:36.560Z,19.20
2017-10-03T22:59:03.872Z,19.20
2017-10-03T23:02:30.101Z,19.20
2017-10-03T23:05:55.999Z,19.10
2017-10-03T23:09:21.823Z,19.10
2017-10-03T23:12:49.015Z,19.10
2017-10-03T23:16:15.102Z,19.10
2017-10-03T23:19:41.971Z,19.10
2017-10-03T23:23:08.773Z,19.00
2017-10-03T23:26:34.805Z,19.10
2017-10-03T23:30:00.572Z,19.00
2017-10-03T23:33:27.270Z,19.00
2017-10-03T23:36:55.330Z,19.00
2017-10-03T23:40:23.268Z,19.00
2017-10-03T23:43:50.679Z,19.00
2017-10-03T23:47:16.412Z,19.00
2017-10-03T23:50:42.418Z,19.00
2017-10-03T23:54:09.363Z,18.90
2017-10-03T23:57:35.263Z,18.90
